createdAt,value
2022-09-16T00:00:04.122Z,99890.03
2022-09-16T00:02:39.870Z,99897.72
2022-09-16T00:05:12.168Z,99900.91
2022-09-16T00:07:43.647Z,99899.53
2022-09-16T00:10:15.738Z,99899.00
2022-09-16T00:12:47.223Z,99900.81
2022-09-16T00:15:19.129Z,99903.41
2022-09-16T00:17:50.632Z,99902.09
2022-09-16T00:20:22.462Z,99900.19
2022-09-16T00:22:53.973Z,99904.47
2022-09-16T00:25:25.838Z,99898.81
2022-09-16T00:27:57.322Z,99898.19
2022-09-16T00:30:29.277Z,99898.09
2022-09-16T00:33:00.766Z,99891.66
2022-09-16T00:35:32.597Z,99893.25
2022-09-16T00:38:04.089Z,99893.75
2022-09-16T00:40:35.946Z,99897.47
2022-09-16T00:43:07.751Z,99909.13
2022-09-16T00:45:39.275Z,99902.97
2022-09-16T00:48:13.050Z,99914.66
2022-09-16T00:50:44.593Z,99917.06
2022-09-16T00:53:16.133Z,99913.03
2022-09-16T00:55:47.631Z,99915.16
2022-09-16T00:58:19.450Z,99904.72
2022-09-16T01:00:51.052Z,99913.53
2022-09-16T01:03:22.961Z,99903.03
2022-09-16T01:05:54.450Z,99913.72
2022-09-16T01:08:26.040Z,99912.56
2022-09-16T01:10:58.008Z,99908.50
2022-09-16T01:13:30.043Z,99903.66
2022-09-16T01:16:01.589Z,99911.91
2022-09-16T01:18:33.523Z,99903.66
2022-09-16T01:21:05.074Z,99911.34
2022-09-16T01:23:37.274Z,99912.16
2022-09-16T01:26:08.769Z,99915.31
2022-09-16T01:28:40.662Z,99906.19
2022-09-16T01:31:12.186Z,99909.34
2022-09-16T01:33:43.979Z,99909.03
2022-09-16T01:36:15.455Z,99905.06
2022-09-16T01:38:47.380Z,99910.91
2022-09-16T01:41:18.890Z,99911.13
2022-09-16T01:43:55.037Z,99917.03
2022-09-16T01:46:26.559Z,99911.13
2022-09-16T01:48:58.604Z,99905.72
2022-09-16T01:51:30.101Z,99909.53
2022-09-16T01:54:03.568Z,99901.44
2022-09-16T01:56:35.112Z,99904.69
2022-09-16T01:59:06.953Z,99903.78
2022-09-16T02:01:38.515Z,99898.22
2022-09-16T02:04:10.434Z,99905.66
2022-09-16T02:06:43.976Z,99911.19
2022-09-16T02:09:15.894Z,99904.25
2022-09-16T02:11:47.416Z,99906.34
2022-09-16T02:14:19.461Z,99909.34
2022-09-16T02:16:50.942Z,99906.09
2022-09-16T02:19:22.839Z,99901.59
2022-09-16T02:21:54.338Z,99908.78
2022-09-16T02:24:26.169Z,99900.53
2022-09-16T02:27:00.657Z,99900.53
2022-09-16T02:29:32.472Z,99901.34
2022-09-16T02:32:04.023Z,99897.78
2022-09-16T02:34:35.897Z,99901.25
2022-09-16T02:37:07.413Z,99901.25
2022-09-16T02:39:39.287Z,99902.31
2022-09-16T02:42:10.781Z,99895.03
2022-09-16T02:44:42.628Z,99903.84
2022-09-16T02:47:14.145Z,99897.72
2022-09-16T02:49:46.124Z,99896.59
2022-09-16T02:52:17.622Z,99903.22
2022-09-16T02:54:49.630Z,99895.78
2022-09-16T02:57:21.112Z,99902.06
2022-09-16T02:59:53.238Z,99905.22
2022-09-16T03:02:24.750Z,99907.34
2022-09-16T03:04:57.496Z,99906.75
2022-09-16T03:07:29.000Z,99903.91
2022-09-16T03:10:00.831Z,99908.19
2022-09-16T03:12:32.313Z,99911.91
2022-09-16T03:15:04.134Z,99914.00
2022-09-16T03:17:35.702Z,99909.72
2022-09-16T03:20:07.496Z,99913.75
2022-09-16T03:22:40.223Z,99914.31
2022-09-16T03:25:11.736Z,99915.25
2022-09-16T03:27:43.383Z,99912.66
2022-09-16T03:30:14.880Z,99910.81
2022-09-16T03:32:46.696Z,99910.06
2022-09-16T03:35:18.262Z,99905.78
2022-09-16T03:37:50.297Z,99898.34
2022-09-16T03:40:22.015Z,99905.16
2022-09-16T03:42:53.984Z,99902.81
2022-09-16T03:45:25.465Z,99907.56
2022-09-16T03:47:57.271Z,99892.94
2022-09-16T03:50:28.776Z,99899.66
2022-09-16T03:53:00.657Z,99899.56
2022-09-16T03:55:32.156Z,99889.47
2022-09-16T03:58:04.207Z,99885.44
2022-09-16T04:00:36.049Z,99887.53
2022-09-16T04:03:07.931Z,99900.63
2022-09-16T04:05:39.485Z,99903.13
2022-09-16T04:08:11.332Z,99895.94
2022-09-16T04:10:42.820Z,99891.31
2022-09-16T04:13:14.662Z,99890.03
2022-09-16T04:15:46.204Z,99893.13
2022-09-16T04:18:18.134Z,99882.03
2022-09-16T04:20:49.634Z,99895.59
2022-09-16T04:23:21.471Z,99897.22
2022-09-16T04:25:52.993Z,99891.56
2022-09-16T04:28:24.866Z,99904.34
2022-09-16T04:30:56.582Z,99898.50
2022-09-16T04:33:28.498Z,99899.66
2022-09-16T04:35:59.996Z,99897.22
2022-09-16T04:38:31.816Z,99901.81
2022-09-16T04:41:03.299Z,99900.47
2022-09-16T04:43:35.223Z,99901.19
2022-09-16T04:46:06.943Z,99902.81
2022-09-16T04:48:38.883Z,99898.19
2022-09-16T04:51:10.397Z,99895.78
2022-09-16T04:53:44.063Z,99893.84
2022-09-16T04:56:15.980Z,99880.81
2022-09-16T04:58:47.861Z,99887.78
2022-09-16T05:01:19.391Z,99887.84
2022-09-16T05:03:51.306Z,99882.91
2022-09-16T05:06:22.893Z,99886.00
2022-09-16T05:08:54.902Z,99890.84
2022-09-16T05:11:26.435Z,99889.47
2022-09-16T05:13:58.915Z,99900.94
2022-09-16T05:16:30.639Z,99893.19
2022-09-16T05:19:04.933Z,99893.34
2022-09-16T05:21:36.642Z,99891.97
2022-09-16T05:24:09.017Z,99893.59
2022-09-16T05:26:41.910Z,99891.56
2022-09-16T05:29:13.430Z,99884.78
2022-09-16T05:31:47.191Z,99900.63
2022-09-16T05:34:19.111Z,99889.00
2022-09-16T05:36:53.859Z,99891.22
2022-09-16T05:39:26.592Z,99891.31
2022-09-16T05:41:58.370Z,99897.28
2022-09-16T05:44:30.338Z,99895.28
2022-09-16T05:47:02.326Z,99889.34
2022-09-16T05:49:34.951Z,99896.38
2022-09-16T05:52:06.456Z,99897.94
2022-09-16T05:54:38.431Z,99900.22
2022-09-16T05:57:10.260Z,99893.66
2022-09-16T05:59:41.758Z,99895.53
2022-09-16T06:02:13.650Z,99893.56
2022-09-16T06:04:45.498Z,99891.34
2022-09-16T06:07:17.755Z,99894.34
2022-09-16T06:09:49.400Z,99887.19
2022-09-16T06:12:21.431Z,99890.03
2022-09-16T06:14:52.947Z,99881.94
2022-09-16T06:17:24.943Z,99878.47
2022-09-16T06:19:56.522Z,99885.75
2022-09-16T06:22:28.193Z,99884.88
2022-09-16T06:24:59.672Z,99889.28
2022-09-16T06:27:31.496Z,99885.63
2022-09-16T06:30:03.016Z,99890.59
2022-09-16T06:32:34.799Z,99882.44
2022-09-16T06:35:06.286Z,99881.31
2022-09-16T06:37:38.166Z,99890.06
2022-09-16T06:40:09.997Z,99883.69
2022-09-16T06:42:41.775Z,99883.81
2022-09-16T06:45:13.290Z,99884.25
2022-09-16T06:47:45.231Z,99885.28
2022-09-16T06:50:16.736Z,99880.72
2022-09-16T06:52:48.743Z,99880.56
2022-09-16T06:55:20.277Z,99876.34
2022-09-16T06:57:52.170Z,99886.03
2022-09-16T07:00:23.709Z,99895.72
2022-09-16T07:02:55.582Z,99891.78
2022-09-16T07:05:27.075Z,99897.00
2022-09-16T07:07:58.922Z,99900.09
2022-09-16T07:10:30.790Z,99902.69
2022-09-16T07:13:02.823Z,99898.13
2022-09-16T07:15:39.298Z,99900.81
2022-09-16T07:18:22.580Z,99891.94
2022-09-16T07:20:54.096Z,99890.53
2022-09-16T07:23:25.581Z,99892.72
2022-09-16T07:25:57.396Z,99892.97
2022-09-16T07:28:28.887Z,99893.78
2022-09-16T07:31:00.792Z,99896.47
2022-09-16T07:33:33.318Z,99888.00
2022-09-16T07:36:05.348Z,99901.28
2022-09-16T07:38:36.899Z,99892.19
2022-09-16T07:41:08.531Z,99897.81
2022-09-16T07:43:40.342Z,99904.53
2022-09-16T07:46:12.275Z,99890.84
2022-09-16T07:48:43.863Z,99902.91
2022-09-16T07:51:15.415Z,99904.72
2022-09-16T07:53:47.008Z,99905.06
2022-09-16T07:56:19.050Z,99903.91
2022-09-16T07:58:50.555Z,99903.16
2022-09-16T08:01:22.140Z,99908.47
2022-09-16T08:03:53.664Z,99906.13
2022-09-16T08:06:25.157Z,99924.41
2022-09-16T08:08:59.779Z,99912.88
2022-09-16T08:11:37.348Z,99910.97
2022-09-16T08:14:08.843Z,99912.88
2022-09-16T08:16:40.401Z,99909.31
2022-09-16T08:19:11.924Z,99907.16
2022-09-16T08:21:43.436Z,99915.25
2022-09-16T08:24:16.359Z,99920.91
2022-09-16T08:26:48.232Z,99918.25
2022-09-16T08:29:19.841Z,99904.53
2022-09-16T08:31:51.841Z,99906.28
2022-09-16T08:34:23.374Z,99903.53
2022-09-16T08:36:55.338Z,99908.88
2022-09-16T08:39:26.872Z,99905.38
2022-09-16T08:42:00.454Z,99901.75
2022-09-16T08:44:31.946Z,99901.59
2022-09-16T08:47:03.831Z,99896.69
2022-09-16T08:49:35.369Z,99890.91
2022-09-16T08:52:07.296Z,99895.91
2022-09-16T08:54:38.800Z,99888.16
2022-09-16T08:57:10.597Z,99898.03
2022-09-16T08:59:42.647Z,99886.97
2022-09-16T09:02:15.097Z,99890.34
2022-09-16T09:04:46.915Z,99880.88
2022-09-16T09:07:18.922Z,99885.16
2022-09-16T09:09:50.424Z,99755.78
2022-09-16T09:12:22.502Z,99884.56
2022-09-16T09:14:54.475Z,99882.09
2022-09-16T09:17:26.432Z,99890.00
2022-09-16T09:19:58.143Z,99878.00
2022-09-16T09:22:30.018Z,99884.16
2022-09-16T09:25:01.511Z,99863.81
2022-09-16T09:27:33.347Z,99876.94
2022-09-16T09:30:05.124Z,99886.47
2022-09-16T09:32:48.419Z,99875.31
2022-09-16T09:35:20.324Z,99874.41
2022-09-16T09:37:52.183Z,99875.94
2022-09-16T09:40:23.860Z,99873.91
2022-09-16T09:42:55.748Z,99860.94
2022-09-16T09:45:27.303Z,99858.66
2022-09-16T09:47:59.167Z,99864.28
2022-09-16T09:50:30.765Z,99862.00
2022-09-16T09:53:02.704Z,99860.31
2022-09-16T09:55:34.233Z,99855.75
2022-09-16T09:58:06.126Z,99855.03
2022-09-16T10:00:37.644Z,99858.91
2022-09-16T10:03:09.984Z,99859.44
2022-09-16T10:05:41.486Z,99854.75
2022-09-16T10:08:16.435Z,99852.66
2022-09-16T10:10:49.109Z,99861.88
2022-09-16T10:13:20.632Z,99851.22
2022-09-16T10:15:55.623Z,99851.41
2022-09-16T10:18:27.545Z,99853.59
2022-09-16T10:20:59.354Z,99859.84
2022-09-16T10:23:30.945Z,99850.59
2022-09-16T10:26:02.830Z,99849.97
2022-09-16T10:28:34.318Z,99841.69
2022-09-16T10:31:06.227Z,99854.31
2022-09-16T10:33:37.761Z,99849.75
2022-09-16T10:36:09.577Z,99852.38
2022-09-16T10:38:41.146Z,99853.81
2022-09-16T10:41:13.048Z,99851.47
2022-09-16T10:43:44.538Z,99845.25
2022-09-16T10:46:16.419Z,99828.03
2022-09-16T10:48:47.942Z,99852.09
2022-09-16T10:51:19.857Z,99839.75
2022-09-16T10:53:51.683Z,99850.56
2022-09-16T10:56:23.715Z,99835.63
2022-09-16T10:58:55.239Z,99842.00
2022-09-16T11:01:28.023Z,99848.38
2022-09-16T11:03:59.885Z,99843.25
2022-09-16T11:06:31.500Z,99837.81
2022-09-16T11:09:03.010Z,99838.25
2022-09-16T11:11:34.920Z,99833.84
2022-09-16T11:14:06.435Z,99840.84
2022-09-16T11:16:38.381Z,99731.31
2022-09-16T11:19:10.130Z,99827.09
2022-09-16T11:21:41.626Z,99820.44
2022-09-16T11:24:13.133Z,99816.69
2022-09-16T11:26:44.933Z,99831.97
2022-09-16T11:29:16.437Z,99807.59
2022-09-16T11:31:48.523Z,99826.25
2022-09-16T11:34:20.651Z,99826.56
2022-09-16T11:36:52.511Z,99815.97
2022-09-16T11:39:24.029Z,99823.06
2022-09-16T11:41:55.925Z,99830.66
2022-09-16T11:44:27.705Z,99827.63
2022-09-16T11:46:59.619Z,99825.84
2022-09-16T11:49:31.150Z,99814.25
2022-09-16T11:52:05.156Z,99798.19
2022-09-16T11:54:36.848Z,99808.78
2022-09-16T11:57:10.830Z,99793.56
2022-09-16T11:59:44.701Z,99792.53
2022-09-16T12:02:16.597Z,99792.97
2022-09-16T12:04:48.221Z,99791.44
2022-09-16T12:07:20.206Z,99800.22
2022-09-16T12:09:51.685Z,99802.19
2022-09-16T12:12:23.662Z,99786.13
2022-09-16T12:14:55.734Z,99790.44
2022-09-16T12:17:28.153Z,99782.22
2022-09-16T12:19:59.635Z,99772.41
2022-09-16T12:22:31.533Z,99775.88
2022-09-16T12:25:03.018Z,99763.63
2022-09-16T12:27:35.187Z,99755.06
2022-09-16T12:30:06.775Z,99768.13
2022-09-16T12:32:38.638Z,99762.59
2022-09-16T12:35:10.126Z,99759.50
2022-09-16T12:37:41.949Z,99760.31
2022-09-16T12:40:13.531Z,99749.16
2022-09-16T12:42:46.724Z,99761.69
2022-09-16T12:45:18.330Z,99764.91
2022-09-16T12:47:50.176Z,99756.84
2022-09-16T12:50:21.654Z,99758.75
2022-09-16T12:52:55.006Z,99752.41
2022-09-16T12:55:26.832Z,99769.13
2022-09-16T12:57:58.697Z,99698.13
2022-09-16T13:00:30.175Z,99765.00
2022-09-16T13:03:02.055Z,99744.00
2022-09-16T13:05:33.807Z,99748.09
2022-09-16T13:08:05.729Z,99746.28
2022-09-16T13:13:29.081Z,99737.94
2022-09-16T13:16:00.638Z,99736.47
2022-09-16T13:18:33.449Z,99728.34
2022-09-16T13:21:05.315Z,99734.56
2022-09-16T13:23:36.817Z,99724.72
2022-09-16T13:26:08.735Z,99710.69
2022-09-16T13:28:40.657Z,99713.19
2022-09-16T13:31:13.018Z,99712.22
2022-09-16T13:33:44.637Z,99714.78
2022-09-16T13:36:16.963Z,99713.28
2022-09-16T13:38:49.791Z,99706.84
2022-09-16T13:41:21.608Z,99709.88
2022-09-16T13:43:53.387Z,99709.06
2022-09-16T13:46:25.269Z,99707.66
2022-09-16T13:48:56.781Z,99701.28
2022-09-16T13:51:30.836Z,99707.72
2022-09-16T13:54:05.965Z,99707.56
2022-09-16T13:56:37.846Z,99700.44
2022-09-16T13:59:09.389Z,99702.34
2022-09-16T14:01:58.778Z,99708.53
2022-09-16T14:04:31.257Z,99704.84
2022-09-16T14:07:03.219Z,99699.97
2022-09-16T14:09:34.729Z,99699.66
2022-09-16T14:12:06.544Z,99703.47
2022-09-16T14:14:53.396Z,99705.72
2022-09-16T14:17:25.277Z,99699.16
2022-09-16T14:19:56.808Z,99694.75
2022-09-16T14:22:29.231Z,99717.72
2022-09-16T14:25:06.508Z,99695.28
2022-09-16T14:27:44.968Z,99699.22
2022-09-16T14:30:17.254Z,99684.91
2022-09-16T14:32:49.322Z,99701.72
2022-09-16T14:35:21.017Z,99693.03
2022-09-16T14:37:52.510Z,99694.56
2022-09-16T14:40:24.049Z,99686.22
2022-09-16T14:42:55.545Z,99693.75
2022-09-16T14:45:27.046Z,99692.94
2022-09-16T14:47:58.719Z,99681.19
2022-09-16T14:50:30.329Z,99682.78
2022-09-16T14:53:01.850Z,99675.09
2022-09-16T14:55:36.467Z,99674.13
2022-09-16T14:58:07.951Z,99664.81
2022-09-16T15:00:39.761Z,99677.84
2022-09-16T15:03:11.239Z,99665.72
2022-09-16T15:05:43.108Z,99662.84
2022-09-16T15:08:14.975Z,99666.53
2022-09-16T15:10:54.181Z,99669.06
2022-09-16T15:13:25.762Z,99667.81
2022-09-16T15:15:57.797Z,99666.34
2022-09-16T15:18:29.314Z,99658.19
2022-09-16T15:21:01.288Z,99660.41
2022-09-16T15:23:32.827Z,99664.00
2022-09-16T15:26:04.675Z,99656.78
2022-09-16T15:28:36.478Z,99659.03
2022-09-16T15:31:10.291Z,99658.97
2022-09-16T15:33:41.931Z,99582.50
2022-09-16T15:36:14.228Z,99649.88
2022-09-16T15:38:45.722Z,99654.97
2022-09-16T15:41:17.717Z,99655.06
2022-09-16T15:43:49.537Z,99642.19
2022-09-16T15:46:21.962Z,99645.25
2022-09-16T15:48:55.851Z,99643.56
2022-09-16T15:51:29.356Z,99656.44
2022-09-16T15:54:01.541Z,99646.25
2022-09-16T15:56:33.307Z,99664.28
2022-09-16T15:59:05.334Z,99664.25
2022-09-16T16:01:37.449Z,99653.91
2022-09-16T16:04:09.478Z,99665.25
2022-09-16T16:06:41.062Z,99663.19
2022-09-16T16:09:12.881Z,99660.91
2022-09-16T16:11:44.381Z,99658.06
2022-09-16T16:14:16.327Z,99651.66
2022-09-16T16:17:11.130Z,99652.34
2022-09-16T16:19:41.700Z,99659.03
2022-09-16T16:22:13.996Z,99648.28
2022-09-16T16:24:46.340Z,99648.25
2022-09-16T16:27:17.844Z,99643.53
2022-09-16T16:29:49.852Z,99646.63
2022-09-16T16:32:21.439Z,99643.44
2022-09-16T16:34:54.958Z,99650.72
2022-09-16T16:37:46.521Z,99644.47
2022-09-16T16:40:18.277Z,99649.50
2022-09-16T16:42:49.849Z,99644.47
2022-09-16T16:45:21.708Z,99652.59
2022-09-16T16:47:53.231Z,99652.88
2022-09-16T16:50:25.107Z,99645.66
2022-09-16T16:52:56.672Z,99662.13
2022-09-16T16:55:28.484Z,99650.75
2022-09-16T16:58:00.272Z,99657.63
2022-09-16T17:00:31.834Z,99659.09
2022-09-16T17:03:03.779Z,99658.16
2022-09-16T17:05:35.325Z,99655.22
2022-09-16T17:08:07.212Z,99661.25
2022-09-16T17:10:38.783Z,99661.25
2022-09-16T17:13:10.609Z,99669.41
2022-09-16T17:15:42.151Z,99670.22
2022-09-16T17:18:14.013Z,99663.00
2022-09-16T17:20:45.494Z,99668.75
2022-09-16T17:23:17.310Z,99672.25
2022-09-16T17:25:48.823Z,99671.78
2022-09-16T17:28:20.657Z,99673.94
2022-09-16T17:30:52.207Z,99677.75
2022-09-16T17:33:24.044Z,99672.94
2022-09-16T17:35:55.556Z,99679.13
2022-09-16T17:38:27.354Z,99673.53
2022-09-16T17:40:58.880Z,99669.25
2022-09-16T17:43:32.644Z,99678.66
2022-09-16T17:46:04.414Z,99673.56
2022-09-16T17:48:37.790Z,99666.84
2022-09-16T17:51:09.293Z,99678.63
2022-09-16T17:53:41.298Z,99675.97
2022-09-16T17:56:12.851Z,99680.78
2022-09-16T17:58:44.718Z,99678.38
2022-09-16T18:01:16.268Z,99667.91
2022-09-16T18:03:48.206Z,99661.22
2022-09-16T18:06:19.856Z,99662.56
2022-09-16T18:08:52.173Z,99670.06
2022-09-16T18:11:24.265Z,99665.50
2022-09-16T18:13:56.166Z,99665.78
2022-09-16T18:16:27.717Z,99669.00
2022-09-16T18:18:59.685Z,99672.75
2022-09-16T18:21:31.301Z,99674.88
2022-09-16T18:24:03.228Z,99665.78
2022-09-16T18:26:34.747Z,99671.66
2022-09-16T18:29:09.923Z,99666.00
2022-09-16T18:31:41.846Z,99668.13
2022-09-16T18:34:13.733Z,99665.47
2022-09-16T18:36:45.248Z,99667.59
2022-09-16T18:39:17.053Z,99672.41
2022-09-16T18:41:48.627Z,99669.19
2022-09-16T18:44:20.195Z,99672.41
2022-09-16T18:46:51.779Z,99662.75
2022-09-16T18:49:26.416Z,99670.00
2022-09-16T18:51:57.919Z,99668.38
2022-09-16T18:54:29.905Z,99671.06
2022-09-16T18:57:01.934Z,99659.03
2022-09-16T18:59:34.524Z,99668.13
2022-09-16T19:02:08.542Z,99665.47
2022-09-16T19:04:40.558Z,99672.16
2022-09-16T19:07:12.057Z,99670.00
2022-09-16T19:09:45.836Z,99668.69
2022-09-16T19:12:17.337Z,99662.53
2022-09-16T19:14:49.269Z,99665.19
2022-09-16T19:17:20.861Z,99662.25
2022-09-16T19:19:52.714Z,99664.13
2022-09-16T19:22:24.234Z,99665.72
2022-09-16T19:24:55.788Z,99663.06
2022-09-16T19:27:27.268Z,99666.81
2022-09-16T19:29:59.124Z,99663.06
2022-09-16T19:32:30.657Z,99669.72
2022-09-16T19:35:03.238Z,99672.13
2022-09-16T19:37:34.741Z,99668.91
2022-09-16T19:40:06.729Z,99667.78
2022-09-16T19:42:38.395Z,99672.06
2022-09-16T19:45:10.567Z,99664.03
2022-09-16T19:47:42.058Z,99669.66
2022-09-16T19:50:14.099Z,99666.16
2022-09-16T19:52:45.586Z,99675.16
2022-09-16T19:55:17.378Z,99670.50
2022-09-16T19:57:48.867Z,99663.06
2022-09-16T20:00:20.391Z,99668.28
2022-09-16T20:02:51.915Z,99672.13
2022-09-16T20:05:24.220Z,99674.41
2022-09-16T20:07:56.230Z,99674.84
2022-09-16T20:10:28.224Z,99664.75
2022-09-16T20:13:00.033Z,99663.34
2022-09-16T20:15:31.553Z,99643.00
2022-09-16T20:18:03.406Z,99641.72
2022-09-16T20:20:34.919Z,99636.44
2022-09-16T20:23:06.985Z,99621.84
2022-09-16T20:25:38.570Z,99618.88
2022-09-16T20:28:10.395Z,99620.06
2022-09-16T20:30:41.871Z,99627.06
2022-09-16T20:33:13.662Z,99616.09
2022-09-16T20:35:45.264Z,99615.97
2022-09-16T20:38:17.144Z,99605.97
2022-09-16T20:40:48.702Z,99605.41
2022-09-16T20:43:20.505Z,99604.03
2022-09-16T20:45:52.027Z,99610.75
2022-09-16T20:48:23.725Z,99601.59
2022-09-16T20:50:55.236Z,99608.16
2022-09-16T20:53:27.075Z,99605.31
2022-09-16T20:55:58.555Z,99617.03
2022-09-16T20:58:30.379Z,99600.66
2022-09-16T21:01:01.997Z,99595.00
2022-09-16T21:03:33.937Z,99600.09
2022-09-16T21:06:05.420Z,99595.97
2022-09-16T21:08:37.335Z,99588.47
2022-09-16T21:11:11.371Z,99600.34
2022-09-16T21:13:43.251Z,99607.28
2022-09-16T21:16:15.445Z,99601.78
2022-09-16T21:18:47.125Z,99598.06
2022-09-16T21:21:19.534Z,99598.56
2022-09-16T21:23:51.363Z,99602.84
2022-09-16T21:26:22.853Z,99603.09
2022-09-16T21:28:54.713Z,99593.53
2022-09-16T21:31:26.389Z,99598.31
2022-09-16T21:33:58.348Z,99602.91
2022-09-16T21:36:29.959Z,99605.66
2022-09-16T21:39:02.060Z,99604.81
2022-09-16T21:41:33.726Z,99601.47
2022-09-16T21:44:05.598Z,99601.22
2022-09-16T21:46:41.603Z,99603.88
2022-09-16T21:49:18.466Z,99602.81
2022-09-16T21:51:50.012Z,99610.31
2022-09-16T21:54:21.905Z,99615.97
2022-09-16T21:56:53.449Z,99609.81
2022-09-16T21:59:25.349Z,99606.59
2022-09-16T22:02:01.482Z,99605.47
2022-09-16T22:04:35.159Z,99609.50
2022-09-16T22:07:10.707Z,99611.94
2022-09-16T22:09:42.592Z,99614.66
2022-09-16T22:12:14.093Z,99614.16
2022-09-16T22:14:46.175Z,99615.28
2022-09-16T22:17:18.487Z,99614.47
2022-09-16T22:19:50.300Z,99631.59
2022-09-16T22:22:21.827Z,99627.06
2022-09-16T22:24:53.731Z,99632.72
2022-09-16T22:27:25.271Z,99630.84
2022-09-16T22:29:57.258Z,99624.47
2022-09-16T22:32:28.786Z,99628.19
2022-09-16T22:35:00.613Z,99626.06
2022-09-16T22:37:32.115Z,99620.75
2022-09-16T22:40:04.169Z,99627.94
2022-09-16T22:42:35.785Z,99627.13
2022-09-16T22:45:07.635Z,99627.69
2022-09-16T22:47:39.132Z,99631.00
2022-09-16T22:50:11.016Z,99631.41
2022-09-16T22:52:42.515Z,99626.38
2022-09-16T22:55:14.328Z,99633.34
2022-09-16T22:57:45.848Z,99636.41
2022-09-16T23:00:17.348Z,99639.31
2022-09-16T23:02:48.851Z,99642.53
2022-09-16T23:05:20.663Z,99637.13
2022-09-16T23:07:52.164Z,99640.06
2022-09-16T23:10:23.985Z,99634.47
2022-09-16T23:12:55.538Z,99631.06
2022-09-16T23:15:28.361Z,99644.16
2022-09-16T23:18:00.250Z,99638.81
2022-09-16T23:20:31.931Z,99641.47
2022-09-16T23:23:03.799Z,99646.25
2022-09-16T23:25:35.602Z,99647.38
2022-09-16T23:28:07.106Z,99638.31
2022-09-16T23:30:38.628Z,99649.28
2022-09-16T23:33:10.137Z,99641.28
2022-09-16T23:35:42.069Z,99645.75
2022-09-16T23:38:13.592Z,99644.94
2022-09-16T23:40:45.437Z,99646.13
2022-09-16T23:43:16.896Z,99649.28
2022-09-16T23:45:48.796Z,99650.91
2022-09-16T23:48:20.284Z,99652.56
2022-09-16T23:50:51.752Z,99658.41
2022-09-16T23:53:23.520Z,99663.78
2022-09-16T23:55:54.988Z,99664.09
2022-09-16T23:58:26.746Z,99656.59
